KBPK

Baxter County Airport

Mountain Home, Arkansas, USA
KBPK 170354Z 1704/1724 15004KT 2SM BR OVC006 TEMPO 1704/1706 1SM BR OVC004 FM170600 14006KT 6SM BR VCSH OVC004 WS020/23040KT FM170900 15007KT 3SM -RA BR OVC007 WS020/23040KT TEMPO 1712/1716 2SM -RA BR OVC004 FM171700 29006KT P6SM OVC015
Issued Valid From Valid To
Jan-17 @ 03:54 UTC
(2 hours ago)
Jan-17 @ 04:00 UTC
(2 hours ago)
Jan-18 @ 00:00 UTC
(in 18 hours)
Jan-17 @ 04:00 to Jan-17 @ 06:00
KBPK 170354Z 1704/1724 15004KT 2SM BR OVC006
Wind Visibility Clouds Conditions
150° at 4 knots 2 miles
  • Overcast at 600' AGL
  • Mist
Temporary Jan-17 @ 04:00 to Jan-17 @ 06:00
TEMPO 1704/1706 1SM BR OVC004
Visibility Clouds Conditions
1 miles
  • Overcast at 400' AGL
  • Mist
From Jan-17 @ 06:00 to Jan-17 @ 09:00
FM170600 14006KT 6SM BR VCSH OVC004 WS020/23040KT
Wind Visibility Clouds Conditions
140° at 6 knots
 Wind shear 2,000' AGL from 230° at 40 knots
6 miles
  • Overcast at 400' AGL
  • Mist
From Jan-17 @ 09:00 to Jan-17 @ 17:00
FM170900 15007KT 3SM -RA BR OVC007 WS020/23040KT
Wind Visibility Clouds Conditions
150° at 7 knots
 Wind shear 2,000' AGL from 230° at 40 knots
3 miles
  • Overcast at 700' AGL
  • Light Rain
  • Mist
Temporary Jan-17 @ 12:00 to Jan-17 @ 16:00
TEMPO 1712/1716 2SM -RA BR OVC004
Visibility Clouds Conditions
2 miles
  • Overcast at 400' AGL
  • Light Rain
  • Mist
From Jan-17 @ 17:00 to Jan-18 @ 00:00
FM171700 29006KT P6SM OVC015
Wind Visibility Clouds
290° at 6 knots Greater than 6 miles
  • Overcast at 1,500' AGL
KBPK 170354Z 1704/1724 15004KT 2SM BR OVC006 TEMPO 1704/1706 1SM BR OVC004 FM170600 14006KT 6SM BR VCSH OVC004 WS020/23040KT FM170900 15007KT 3SM -RA BR OVC007 WS020/23040KT TEMPO 1712/1716 2SM -RA BR OVC004 FM171700 29006KT P6SM OVC015
Issued Jan-17 @ 03:54 UTC
(2 hours ago)
Valid From Jan-17 @ 04:00 UTC
(2 hours ago)
Valid To Jan-18 @ 00:00 UTC
(in 18 hours)
Jan-17 @ 04:00 - Jan-17 @ 06:00
Wind Visibility
150° at 4 knots 2 miles
Clouds
  • Overcast at 600' AGL
Conditions
  • Mist
Temporary Jan-17 @ 04:00 - Jan-17 @ 06:00
Clouds
  • Overcast at 400' AGL
Conditions
  • Mist
From Jan-17 @ 06:00 - Jan-17 @ 09:00
Wind Visibility
140° at 6 knots 6 miles
Clouds
  • Overcast at 400' AGL
Conditions
  • Mist
From Jan-17 @ 09:00 - Jan-17 @ 17:00
Wind Visibility
150° at 7 knots 3 miles
Clouds
  • Overcast at 700' AGL
Conditions
  • Light Rain
  • Mist
Temporary Jan-17 @ 12:00 - Jan-17 @ 16:00
Clouds
  • Overcast at 400' AGL
Conditions
  • Light Rain
  • Mist
From Jan-17 @ 17:00 - Jan-18 @ 00:00
Wind Visibility
290° at 6 knots Greater than 6 miles
Clouds
  • Overcast at 1,500' AGL